Time;durP1;ratioP1;P1;durP2;ratioP2;P2;SDS_P1;SDS_P2;PMS_P1;PMS_P2;Temp;Humidity;BMP_temperature;BMP_pressure;BME280_temperature;BME280_humidity;BME280_pressure;Samples;Min_cycle;Max_cycle;Signal;HPM_P1;HPM_P2
2022/04/05 00:00:18;;;;;;;7.53;6.83;;;;;;;;;;5073753;28;20213;-76
2022/04/05 00:02:48;;;;;;;6.30;5.73;;;;;;;;;;5073457;28;20229;-77
2022/04/05 00:05:17;;;;;;;7.03;6.33;;;;;;;;;;5073136;28;20214;-76
2022/04/05 00:07:46;;;;;;;6.30;5.70;;;;;;;;;;5073480;28;20259;-76
2022/04/05 00:10:14;;;;;;;6.43;5.83;;;;;;;;;;5072016;28;20202;-76
2022/04/05 00:12:43;;;;;;;6.73;6.13;;;;;;;;;;5073415;28;20230;-77
2022/04/05 00:15:11;;;;;;;6.53;5.93;;;;;;;;;;5073096;28;20267;-76
2022/04/05 00:17:40;;;;;;;5.23;4.73;;;;;;;;;;5073174;28;20697;-77
2022/04/05 00:20:11;;;;;;;6.50;5.23;;;;;;;;;;5072915;28;20202;-77
2022/04/05 00:22:39;;;;;;;5.63;5.07;;;;;;;;;;5073633;28;20206;-78
2022/04/05 00:25:08;;;;;;;4.80;4.37;;;;;;;;;;5071796;28;20199;-77
2022/04/05 00:27:37;;;;;;;5.03;4.23;;;;;;;;;;5073264;28;20245;-77
2022/04/05 00:30:06;;;;;;;5.97;4.17;;;;;;;;;;5073353;28;20247;-77
2022/04/05 00:32:34;;;;;;;4.40;4.00;;;;;;;;;;5073561;28;20224;-77
2022/04/05 00:35:03;;;;;;;5.47;4.50;;;;;;;;;;5073606;28;20275;-77
2022/04/05 00:37:32;;;;;;;5.07;4.53;;;;;;;;;;5073114;28;20222;-77
2022/04/05 00:40:02;;;;;;;5.07;4.50;;;;;;;;;;5072328;28;20221;-76
2022/04/05 00:42:34;;;;;;;6.00;3.83;;;;;;;;;;5071474;28;20209;-77
2022/04/05 00:45:03;;;;;;;5.67;4.40;;;;;;;;;;5070996;28;20203;-77
2022/04/05 00:47:31;;;;;;;4.40;4.00;;;;;;;;;;5071914;28;20693;-77
2022/04/05 00:49:59;;;;;;;5.00;4.33;;;;;;;;;;5073131;28;20211;-75
2022/04/05 00:52:28;;;;;;;4.20;3.80;;;;;;;;;;5073060;28;20210;-77
2022/04/05 00:55:00;;;;;;;4.57;3.73;;;;;;;;;;5071884;28;20731;-77
2022/04/05 00:57:29;;;;;;;4.80;4.00;;;;;;;;;;5071649;28;20279;-77
2022/04/05 00:59:58;;;;;;;5.07;4.30;;;;;;;;;;5071773;28;20268;-76
2022/04/05 01:02:28;;;;;;;4.67;4.07;;;;;;;;;;5073135;28;20210;-76
2022/04/05 01:04:57;;;;;;;5.13;4.23;;;;;;;;;;5066373;28;20202;-75
2022/04/05 01:07:27;;;;;;;5.23;3.83;;;;;;;;;;5086702;28;20279;-76
2022/04/05 01:09:57;;;;;;;4.30;3.90;;;;;;;;;;5073859;28;20210;-76
2022/04/05 01:12:26;;;;;;;4.03;3.70;;;;;;;;;;5072874;28;20214;-74
2022/04/05 01:14:54;;;;;;;4.57;3.50;;;;;;;;;;5072294;28;20700;-75
2022/04/05 01:17:23;;;;;;;3.70;3.10;;;;;;;;;;5064923;28;20234;-76
2022/04/05 01:19:52;;;;;;;3.83;3.43;;;;;;;;;;5067860;28;20205;-77
2022/04/05 01:22:20;;;;;;;5.10;3.27;;;;;;;;;;5073071;28;20209;-77
2022/04/05 01:24:51;;;;;;;3.30;3.00;;;;;;;;;;5071875;28;20260;-75
2022/04/05 01:27:19;;;;;;;3.23;2.83;;;;;;;;;;5071600;28;20214;-76
2022/04/05 01:29:48;;;;;;;3.53;3.23;;;;;;;;;;5072820;28;20233;-75
2022/04/05 01:32:16;;;;;;;3.50;3.07;;;;;;;;;;5074916;28;20209;-75
2022/04/05 01:34:45;;;;;;;3.37;3.07;;;;;;;;;;5075843;28;20222;-76
2022/04/05 01:37:13;;;;;;;3.53;3.20;;;;;;;;;;5075647;28;20222;-77
2022/04/05 01:39:42;;;;;;;3.50;3.20;;;;;;;;;;5076424;28;20332;-76
2022/04/05 01:42:13;;;;;;;3.80;3.33;;;;;;;;;;5076628;28;20289;-76
2022/04/05 01:44:42;;;;;;;5.00;4.30;;;;;;;;;;5075937;28;20564;-74
2022/04/05 01:47:12;;;;;;;4.00;3.60;;;;;;;;;;5073142;28;20619;-76
2022/04/05 01:49:42;;;;;;;3.63;3.33;;;;;;;;;;5076550;28;20206;-75
2022/04/05 01:52:10;;;;;;;4.43;3.60;;;;;;;;;;5061822;28;20228;-76
2022/04/05 01:54:39;;;;;;;3.50;2.93;;;;;;;;;;5072075;28;20210;-74
2022/04/05 01:57:08;;;;;;;3.43;3.13;;;;;;;;;;5076036;28;20223;-74
2022/04/05 01:59:38;;;;;;;3.80;3.00;;;;;;;;;;5075839;28;20205;-76
2022/04/05 02:02:07;;;;;;;3.70;2.90;;;;;;;;;;5076246;28;20198;-76
2022/04/05 02:04:36;;;;;;;3.70;2.90;;;;;;;;;;5074592;28;20207;-76
2022/04/05 02:07:09;;;;;;;3.40;2.80;;;;;;;;;;5075012;28;20600;-76
2022/04/05 02:09:37;;;;;;;5.47;2.77;;;;;;;;;;5075188;28;20611;-74
2022/04/05 02:12:06;;;;;;;3.03;2.33;;;;;;;;;;5076043;28;20210;-74
2022/04/05 02:14:35;;;;;;;2.93;2.63;;;;;;;;;;5075482;28;20301;-74
2022/04/05 02:17:05;;;;;;;3.57;2.67;;;;;;;;;;5075075;28;20621;-75
2022/04/05 02:19:34;;;;;;;4.17;2.80;;;;;;;;;;5075682;28;20263;-75
2022/04/05 02:22:02;;;;;;;2.90;2.70;;;;;;;;;;5075884;28;20206;-76
2022/04/05 02:24:31;;;;;;;3.40;2.53;;;;;;;;;;5074709;28;20236;-74
2022/04/05 02:26:59;;;;;;;3.53;2.60;;;;;;;;;;5062995;28;20257;-74
2022/04/05 02:29:27;;;;;;;3.83;2.53;;;;;;;;;;5055488;28;20550;-76
2022/04/05 02:31:56;;;;;;;4.37;3.10;;;;;;;;;;5055587;28;20600;-74
2022/04/05 02:34:26;;;;;;;3.30;2.80;;;;;;;;;;5055699;28;20557;-75
2022/04/05 02:36:54;;;;;;;4.20;2.70;;;;;;;;;;5072210;28;20230;-74
2022/04/05 02:39:22;;;;;;;3.20;2.90;;;;;;;;;;5075325;28;20251;-74
2022/04/05 02:41:51;;;;;;;3.53;2.90;;;;;;;;;;5071976;28;20214;-74
2022/04/05 02:44:19;;;;;;;4.80;3.43;;;;;;;;;;5054370;28;20203;-73
2022/04/05 02:46:47;;;;;;;5.77;3.53;;;;;;;;;;5067675;28;20226;-75
2022/04/05 02:49:16;;;;;;;6.20;3.43;;;;;;;;;;5074243;28;20253;-74
2022/04/05 02:51:46;;;;;;;5.13;3.60;;;;;;;;;;5075333;28;20252;-73
2022/04/05 02:54:15;;;;;;;4.60;3.80;;;;;;;;;;5070001;28;20223;-74
2022/04/05 02:56:46;;;;;;;5.27;4.00;;;;;;;;;;5074642;28;20222;-75
2022/04/05 02:59:15;;;;;;;5.57;4.33;;;;;;;;;;5068080;28;20199;-75
2022/04/05 03:01:43;;;;;;;6.37;4.57;;;;;;;;;;5059198;28;20202;-74
2022/04/05 03:04:12;;;;;;;5.40;4.40;;;;;;;;;;5074561;28;20293;-74
2022/04/05 03:06:40;;;;;;;4.97;4.47;;;;;;;;;;5090142;28;20242;-74
2022/04/05 03:09:10;;;;;;;6.37;4.57;;;;;;;;;;5094976;28;20202;-73
2022/04/05 03:11:38;;;;;;;6.67;4.80;;;;;;;;;;5094965;28;20212;-74
2022/04/05 03:14:07;;;;;;;5.43;4.57;;;;;;;;;;5078447;28;20198;-75
2022/04/05 03:16:37;;;;;;;5.10;4.60;;;;;;;;;;5074558;28;20218;-73
2022/04/05 03:19:07;;;;;;;6.00;4.80;;;;;;;;;;5074833;28;20225;-74
2022/04/05 03:21:36;;;;;;;5.90;4.97;;;;;;;;;;5074723;28;20213;-74
2022/04/05 03:24:05;;;;;;;5.30;4.80;;;;;;;;;;5074219;28;20658;-74
2022/04/05 03:26:34;;;;;;;5.87;4.70;;;;;;;;;;5074148;28;20275;-74
2022/04/05 03:29:03;;;;;;;5.30;4.80;;;;;;;;;;5073876;28;20215;-74
2022/04/05 03:31:31;;;;;;;6.13;5.00;;;;;;;;;;5054694;28;20264;-73
2022/04/05 03:34:00;;;;;;;5.67;5.10;;;;;;;;;;5067025;28;20263;-74
2022/04/05 03:36:29;;;;;;;5.80;5.13;;;;;;;;;;5072316;28;20233;-74
2022/04/05 03:38:57;;;;;;;6.40;5.27;;;;;;;;;;5073669;28;20727;-73
2022/04/05 03:41:25;;;;;;;8.20;5.33;;;;;;;;;;5074295;28;20567;-73
2022/04/05 03:43:55;;;;;;;7.63;5.10;;;;;;;;;;5074002;28;20202;-74
2022/04/05 03:46:23;;;;;;;8.77;5.70;;;;;;;;;;5073915;28;20198;-74
2022/04/05 03:48:52;;;;;;;5.77;4.93;;;;;;;;;;5074175;28;20233;-74
2022/04/05 03:51:21;;;;;;;6.97;5.10;;;;;;;;;;5072508;28;20199;-73
2022/04/05 03:53:49;;;;;;;7.70;5.00;;;;;;;;;;5073903;28;20210;-73
2022/04/05 03:56:19;;;;;;;6.70;5.07;;;;;;;;;;5072461;28;20245;-73
2022/04/05 03:58:47;;;;;;;6.17;5.20;;;;;;;;;;5073789;28;20198;-73
2022/04/05 04:01:17;;;;;;;6.57;5.00;;;;;;;;;;5073842;28;20256;-74
2022/04/05 04:03:46;;;;;;;8.23;4.37;;;;;;;;;;5072538;28;20571;-73
2022/04/05 04:06:14;;;;;;;8.00;5.07;;;;;;;;;;5072943;28;20576;-73
2022/04/05 04:08:43;;;;;;;5.00;4.50;;;;;;;;;;5071638;28;20210;-75
2022/04/05 04:11:11;;;;;;;5.13;4.40;;;;;;;;;;5073687;28;20203;-73
2022/04/05 04:13:40;;;;;;;5.47;4.37;;;;;;;;;;5073570;28;20198;-73
2022/04/05 04:16:08;;;;;;;5.53;4.70;;;;;;;;;;5072315;28;20222;-73
2022/04/05 04:18:38;;;;;;;5.93;4.47;;;;;;;;;;5072823;28;20206;-74
2022/04/05 04:21:06;;;;;;;6.23;4.50;;;;;;;;;;5073402;28;20259;-74
2022/04/05 04:23:35;;;;;;;7.50;4.87;;;;;;;;;;5071710;28;20260;-73
2022/04/05 04:26:05;;;;;;;6.70;4.50;;;;;;;;;;5071610;28;20229;-74
2022/04/05 04:28:34;;;;;;;6.90;4.20;;;;;;;;;;5073168;28;20202;-74
2022/04/05 04:31:02;;;;;;;6.27;4.10;;;;;;;;;;5073045;28;20203;-73
2022/04/05 04:33:31;;;;;;;6.60;4.67;;;;;;;;;;5072791;28;20195;-73
2022/04/05 04:36:01;;;;;;;6.40;3.90;;;;;;;;;;5072050;28;20222;-74
2022/04/05 04:38:29;;;;;;;7.10;4.23;;;;;;;;;;5073369;28;20226;-73
2022/04/05 04:40:58;;;;;;;8.57;4.90;;;;;;;;;;5073230;28;20202;-74
2022/04/05 04:43:27;;;;;;;5.87;4.33;;;;;;;;;;5072563;28;20371;-74
2022/04/05 04:46:01;;;;;;;6.80;4.93;;;;;;;;;;5071459;28;20575;-73
2022/04/05 04:48:29;;;;;;;10.93;5.00;;;;;;;;;;5071040;28;20689;-73
2022/04/05 04:50:58;;;;;;;5.80;4.23;;;;;;;;;;5069927;28;20689;-73
2022/04/05 04:53:27;;;;;;;5.90;4.30;;;;;;;;;;5065964;28;20210;-73
2022/04/05 04:55:56;;;;;;;8.23;4.30;;;;;;;;;;5071261;28;21375;-73
2022/04/05 04:58:36;;;;;;;5.47;4.17;;;;;;;;;;5063165;28;20214;-73
2022/04/05 05:01:04;;;;;;;8.37;4.63;;;;;;;;;;5065354;28;20206;-74
2022/04/05 05:03:33;;;;;;;7.27;4.23;;;;;;;;;;5077989;28;20214;-73
2022/04/05 05:06:02;;;;;;;6.80;3.83;;;;;;;;;;5073064;28;20199;-73
2022/04/05 05:08:31;;;;;;;7.60;4.43;;;;;;;;;;5067512;28;20563;-73
2022/04/05 05:11:00;;;;;;;8.47;4.23;;;;;;;;;;5072408;28;20202;-73
2022/04/05 05:13:31;;;;;;;8.60;4.70;;;;;;;;;;5067268;28;20537;-72
2022/04/05 05:15:59;;;;;;;6.90;4.00;;;;;;;;;;5065848;28;20226;-73
2022/04/05 05:18:28;;;;;;;5.43;3.70;;;;;;;;;;5070532;28;20229;-73
2022/04/05 05:20:56;;;;;;;8.27;4.40;;;;;;;;;;5070921;28;20202;-73
2022/04/05 05:23:24;;;;;;;5.50;3.73;;;;;;;;;;5071045;28;20194;-74
2022/04/05 05:25:55;;;;;;;5.63;4.33;;;;;;;;;;5074879;28;20233;-72
2022/04/05 05:28:23;;;;;;;7.00;3.93;;;;;;;;;;5071010;28;20692;-73
2022/04/05 05:30:52;;;;;;;7.43;3.97;;;;;;;;;;5068661;28;20280;-73
2022/04/05 05:33:20;;;;;;;8.57;3.80;;;;;;;;;;5070426;28;20288;-73
2022/04/05 05:35:49;;;;;;;6.57;3.80;;;;;;;;;;5070200;28;20237;-73
2022/04/05 05:38:18;;;;;;;6.43;3.70;;;;;;;;;;5071311;28;20226;-73
2022/04/05 05:40:48;;;;;;;7.73;3.70;;;;;;;;;;5071537;28;20199;-74
2022/04/05 05:43:18;;;;;;;6.20;3.60;;;;;;;;;;5070985;28;20203;-73
2022/04/05 05:45:47;;;;;;;9.57;3.73;;;;;;;;;;5071624;28;20202;-73
2022/04/05 05:48:15;;;;;;;5.27;3.47;;;;;;;;;;5072148;28;20282;-73
2022/04/05 05:50:44;;;;;;;7.13;3.50;;;;;;;;;;5072103;28;20262;-73
2022/04/05 05:53:12;;;;;;;5.20;3.60;;;;;;;;;;4719686;28;9999732;-74
2022/04/05 05:55:41;;;;;;;5.30;3.30;;;;;;;;;;5071738;28;20666;-73
2022/04/05 05:58:09;;;;;;;7.57;3.50;;;;;;;;;;5072208;28;20219;-73
2022/04/05 06:00:39;;;;;;;5.67;3.60;;;;;;;;;;5072897;28;20198;-72
2022/04/05 06:03:07;;;;;;;7.20;3.50;;;;;;;;;;5071901;28;20665;-74
2022/04/05 06:05:36;;;;;;;8.07;3.90;;;;;;;;;;5071726;28;20237;-73
2022/04/05 06:08:05;;;;;;;7.90;3.40;;;;;;;;;;5072212;28;20642;-73
2022/04/05 06:10:33;;;;;;;6.20;3.23;;;;;;;;;;5072739;28;20260;-73
2022/04/05 06:13:02;;;;;;;6.10;3.60;;;;;;;;;;5071319;28;20230;-73
2022/04/05 06:15:30;;;;;;;9.40;4.00;;;;;;;;;;5072168;28;20213;-74
2022/04/05 06:18:00;;;;;;;7.33;3.73;;;;;;;;;;5071606;28;20229;-73
2022/04/05 06:20:29;;;;;;;7.53;4.10;;;;;;;;;;5075807;28;20202;-74
2022/04/05 06:22:58;;;;;;;6.57;3.70;;;;;;;;;;5075628;28;20658;-74
2022/04/05 06:25:28;;;;;;;7.77;3.73;;;;;;;;;;5075332;28;20206;-73
2022/04/05 06:27:56;;;;;;;6.73;4.00;;;;;;;;;;5074317;28;20218;-73
2022/04/05 06:30:25;;;;;;;6.90;3.97;;;;;;;;;;5075726;28;20211;-74
2022/04/05 06:33:04;;;;;;;7.13;4.23;;;;;;;;;;5075200;28;20272;-74
2022/04/05 06:35:34;;;;;;;7.83;4.30;;;;;;;;;;5074549;28;20202;-73
2022/04/05 06:38:02;;;;;;;7.77;4.30;;;;;;;;;;5075022;28;20633;-74
2022/04/05 06:40:31;;;;;;;6.97;4.27;;;;;;;;;;5075203;28;20248;-73
2022/04/05 06:42:59;;;;;;;5.97;3.87;;;;;;;;;;5075296;28;20198;-73
2022/04/05 06:45:28;;;;;;;13.03;9.33;;;;;;;;;;5071343;28;20198;-73
2022/04/05 06:47:56;;;;;;;7.57;5.57;;;;;;;;;;5075314;28;20219;-73
2022/04/05 06:50:25;;;;;;;11.97;4.90;;;;;;;;;;5075090;28;20206;-75
2022/04/05 06:52:56;;;;;;;6.70;5.00;;;;;;;;;;5074622;28;20205;-73
2022/04/05 06:55:24;;;;;;;8.67;4.90;;;;;;;;;;5074152;28;20202;-74
2022/04/05 06:57:53;;;;;;;8.93;5.40;;;;;;;;;;5074899;28;20245;-73
2022/04/05 07:00:23;;;;;;;9.10;5.60;;;;;;;;;;5075046;28;20210;-74
2022/04/05 07:02:51;;;;;;;7.27;5.00;;;;;;;;;;5074722;28;20234;-74
2022/04/05 07:05:20;;;;;;;9.30;4.77;;;;;;;;;;5073654;28;20214;-73
2022/04/05 07:07:49;;;;;;;8.23;5.00;;;;;;;;;;5073847;28;20210;-73
2022/04/05 07:10:19;;;;;;;9.80;4.30;;;;;;;;;;5072574;28;20238;-73
2022/04/05 07:12:48;;;;;;;7.53;4.87;;;;;;;;;;5074605;28;20195;-74
2022/04/05 07:15:18;;;;;;;7.23;5.33;;;;;;;;;;5074081;28;20197;-71
2022/04/05 07:17:46;;;;;;;11.97;6.80;;;;;;;;;;5074518;28;20546;-73
2022/04/05 07:20:34;;;;;;;7.83;5.03;;;;;;;;;;5074789;28;20206;-73
2022/04/05 07:23:03;;;;;;;7.63;5.00;;;;;;;;;;5074857;28;20277;-74
2022/04/05 07:25:34;;;;;;;7.90;5.23;;;;;;;;;;5074079;28;20209;-73
2022/04/05 07:28:02;;;;;;;9.07;5.40;;;;;;;;;;5072862;28;20237;-74
2022/04/05 07:30:31;;;;;;;8.03;5.70;;;;;;;;;;5073869;28;20214;-73
2022/04/05 07:32:59;;;;;;;9.07;6.00;;;;;;;;;;5073987;28;20208;-73
2022/04/05 07:35:28;;;;;;;9.83;6.47;;;;;;;;;;5073837;28;20194;-73
2022/04/05 07:37:56;;;;;;;7.23;5.30;;;;;;;;;;5074036;28;20223;-73
2022/04/05 07:40:27;;;;;;;6.77;5.10;;;;;;;;;;5073633;28;20252;-72
2022/04/05 07:42:57;;;;;;;9.20;5.10;;;;;;;;;;5074127;28;20234;-73
2022/04/05 07:45:25;;;;;;;7.50;5.67;;;;;;;;;;5069597;28;20210;-73
2022/04/05 07:47:54;;;;;;;8.37;5.33;;;;;;;;;;5073779;28;20294;-73
2022/04/05 07:50:22;;;;;;;7.57;6.37;;;;;;;;;;5073293;28;20217;-73
2022/04/05 07:52:51;;;;;;;8.90;5.87;;;;;;;;;;5073666;28;20658;-73
2022/04/05 07:55:20;;;;;;;10.43;5.60;;;;;;;;;;5073825;28;20566;-73
2022/04/05 07:57:49;;;;;;;8.00;5.07;;;;;;;;;;5073101;28;20228;-73
2022/04/05 08:00:19;;;;;;;10.90;5.50;;;;;;;;;;5073199;28;20636;-73
2022/04/05 08:02:47;;;;;;;9.83;5.50;;;;;;;;;;5073828;28;20208;-73
2022/04/05 08:05:16;;;;;;;8.43;5.77;;;;;;;;;;5072883;28;20621;-74
2022/04/05 08:07:46;;;;;;;10.60;6.10;;;;;;;;;;5073490;28;20221;-73
2022/04/05 08:10:15;;;;;;;10.53;5.60;;;;;;;;;;5073692;28;20205;-73
2022/04/05 08:12:43;;;;;;;9.40;5.73;;;;;;;;;;5073881;28;20205;-72
2022/04/05 08:15:12;;;;;;;7.83;4.77;;;;;;;;;;5073012;28;20618;-72
2022/04/05 08:17:42;;;;;;;7.50;4.50;;;;;;;;;;5072767;28;20223;-73
2022/04/05 08:20:11;;;;;;;6.93;4.53;;;;;;;;;;5072947;28;20198;-73
2022/04/05 08:22:40;;;;;;;8.00;4.90;;;;;;;;;;5073093;28;20194;-72
2022/04/05 08:25:09;;;;;;;5.43;4.10;;;;;;;;;;5072962;28;20252;-73
2022/04/05 08:27:39;;;;;;;8.17;4.83;;;;;;;;;;5072799;28;20310;-72
2022/04/05 08:30:08;;;;;;;6.30;4.30;;;;;;;;;;5073376;28;20207;-72
2022/04/05 08:32:42;;;;;;;6.53;4.73;;;;;;;;;;5072928;28;20202;-73
2022/04/05 08:35:12;;;;;;;8.30;5.10;;;;;;;;;;5072457;28;20292;-72
2022/04/05 08:37:40;;;;;;;6.40;4.37;;;;;;;;;;5072443;28;20712;-72
2022/04/05 08:40:12;;;;;;;7.37;4.27;;;;;;;;;;5073306;28;20202;-72
2022/04/05 08:42:41;;;;;;;6.63;4.63;;;;;;;;;;5072166;28;20198;-72
2022/04/05 08:45:11;;;;;;;8.30;4.40;;;;;;;;;;5072891;28;20573;-73
2022/04/05 08:47:40;;;;;;;4.80;4.33;;;;;;;;;;5072516;28;20223;-72
2022/04/05 08:50:10;;;;;;;6.03;4.80;;;;;;;;;;5072966;28;20209;-72
2022/04/05 08:52:40;;;;;;;8.07;4.53;;;;;;;;;;5072866;28;20201;-73
2022/04/05 08:55:08;;;;;;;6.20;4.33;;;;;;;;;;5072080;28;20198;-71
2022/04/05 08:57:37;;;;;;;5.70;4.50;;;;;;;;;;5072290;28;20344;-72
2022/04/05 09:00:07;;;;;;;8.60;4.93;;;;;;;;;;5072901;28;20252;-72
2022/04/05 09:02:36;;;;;;;7.00;5.00;;;;;;;;;;5072848;28;20210;-72
2022/04/05 09:05:05;;;;;;;5.20;4.70;;;;;;;;;;5072587;28;20210;-72
2022/04/05 09:07:35;;;;;;;7.37;4.40;;;;;;;;;;5072308;28;20619;-72
2022/04/05 09:10:09;;;;;;;5.73;4.20;;;;;;;;;;5072069;28;20197;-72
2022/04/05 09:12:41;;;;;;;6.30;4.20;;;;;;;;;;5072479;28;20204;-72
2022/04/05 09:15:10;;;;;;;4.70;3.70;;;;;;;;;;5072180;28;20536;-73
2022/04/05 09:17:42;;;;;;;5.67;4.10;;;;;;;;;;5072559;28;20230;-72
2022/04/05 09:20:11;;;;;;;6.60;3.70;;;;;;;;;;5072762;28;20259;-72
2022/04/05 09:22:40;;;;;;;6.30;4.30;;;;;;;;;;5072729;28;20206;-72
2022/04/05 09:25:12;;;;;;;4.27;3.87;;;;;;;;;;5072181;28;20712;-73
2022/04/05 09:27:44;;;;;;;4.87;4.03;;;;;;;;;;5072209;28;20222;-72
2022/04/05 09:30:13;;;;;;;9.17;4.53;;;;;;;;;;5072464;28;20687;-73
2022/04/05 09:32:47;;;;;;;7.00;4.13;;;;;;;;;;5072884;28;20206;-74
2022/04/05 09:35:16;;;;;;;6.90;4.40;;;;;;;;;;5072706;28;20210;-72
2022/04/05 09:37:45;;;;;;;6.70;4.50;;;;;;;;;;5072773;28;20226;-73
2022/04/05 09:40:18;;;;;;;5.30;4.50;;;;;;;;;;5072377;28;20597;-73
2022/04/05 09:42:59;;;;;;;6.70;4.80;;;;;;;;;;5071959;28;20203;-73
2022/04/05 09:45:42;;;;;;;8.77;4.73;;;;;;;;;;5071420;28;20252;-72
2022/04/05 09:48:11;;;;;;;7.23;4.20;;;;;;;;;;5069765;28;20211;-72
2022/04/05 09:50:58;;;;;;;5.47;4.20;;;;;;;;;;5072854;28;20248;-73
2022/04/05 09:53:27;;;;;;;4.70;3.73;;;;;;;;;;5073508;28;20213;-72
2022/04/05 09:56:07;;;;;;;5.73;3.27;;;;;;;;;;5075792;28;20666;-71
2022/04/05 09:58:36;;;;;;;5.07;3.20;;;;;;;;;;5074952;28;20217;-72
2022/04/05 10:01:07;;;;;;;5.27;3.40;;;;;;;;;;5076032;28;20255;-72
2022/04/05 10:03:36;;;;;;;3.47;2.90;;;;;;;;;;5076253;28;20187;-73
2022/04/05 10:06:05;;;;;;;4.83;2.97;;;;;;;;;;5075715;28;20210;-72
2022/04/05 10:08:34;;;;;;;5.07;2.83;;;;;;;;;;5075905;28;20209;-72
2022/04/05 10:11:02;;;;;;;5.90;3.43;;;;;;;;;;5075346;28;20273;-72
2022/04/05 10:13:33;;;;;;;7.20;3.40;;;;;;;;;;5075879;28;20255;-72
2022/04/05 10:16:01;;;;;;;4.97;3.57;;;;;;;;;;5075173;28;20198;-72
2022/04/05 10:18:34;;;;;;;5.17;3.40;;;;;;;;;;5075783;28;20226;-72
2022/04/05 10:21:04;;;;;;;5.50;3.60;;;;;;;;;;5075723;28;20558;-72
2022/04/05 10:23:33;;;;;;;5.13;3.60;;;;;;;;;;5074531;28;20213;-72
2022/04/05 10:26:01;;;;;;;6.60;3.60;;;;;;;;;;5074877;28;20193;-73
2022/04/05 10:28:32;;;;;;;4.50;3.30;;;;;;;;;;5075225;28;20578;-72
2022/04/05 10:31:08;;;;;;;3.10;2.80;;;;;;;;;;5075394;28;20654;-73
2022/04/05 10:33:45;;;;;;;5.80;3.00;;;;;;;;;;5075638;28;20217;-72
2022/04/05 10:36:13;;;;;;;5.60;3.53;;;;;;;;;;5074906;28;20198;-72
2022/04/05 10:38:41;;;;;;;4.97;2.80;;;;;;;;;;5074924;28;20214;-72
2022/04/05 10:41:20;;;;;;;4.43;2.97;;;;;;;;;;5075092;28;20247;-72
2022/04/05 10:43:50;;;;;;;4.77;2.90;;;;;;;;;;5075152;28;20202;-72
2022/04/05 10:46:33;;;;;;;4.90;2.97;;;;;;;;;;5074823;28;20205;-73
2022/04/05 10:49:13;;;;;;;3.03;2.73;;;;;;;;;;5075220;28;20607;-73
2022/04/05 10:52:03;;;;;;;4.97;2.53;;;;;;;;;;5075291;28;20202;-73
2022/04/05 10:54:37;;;;;;;3.60;2.33;;;;;;;;;;5068796;28;20421;-73
2022/04/05 10:57:18;;;;;;;3.00;2.70;;;;;;;;;;5075024;28;20226;-73
2022/04/05 10:59:48;;;;;;;3.93;2.80;;;;;;;;;;5074763;28;20214;-73
2022/04/05 11:02:32;;;;;;;3.57;2.60;;;;;;;;;;5074994;28;20202;-73
2022/04/05 11:05:04;;;;;;;3.80;2.20;;;;;;;;;;5071821;28;20215;-73
2022/04/05 11:07:47;;;;;;;3.83;2.23;;;;;;;;;;5074894;28;20278;-73
2022/04/05 11:10:15;;;;;;;4.00;2.40;;;;;;;;;;5073916;28;20190;-73
2022/04/05 11:12:44;;;;;;;4.67;2.40;;;;;;;;;;5074722;28;20236;-73
2022/04/05 11:15:15;;;;;;;2.17;2.00;;;;;;;;;;5073827;28;20238;-73
2022/04/05 11:17:44;;;;;;;2.50;2.30;;;;;;;;;;5054897;28;20220;-73
2022/04/05 11:20:14;;;;;;;3.97;2.70;;;;;;;;;;5064418;28;20229;-73
2022/04/05 11:22:43;;;;;;;3.50;2.70;;;;;;;;;;5074820;28;20202;-73
2022/04/05 11:25:13;;;;;;;3.10;2.77;;;;;;;;;;5074028;28;20867;-73
2022/04/05 11:27:48;;;;;;;3.67;3.00;;;;;;;;;;5074667;28;20233;-73
2022/04/05 11:30:40;;;;;;;4.90;3.20;;;;;;;;;;5073964;28;20238;-73
2022/04/05 11:33:14;;;;;;;5.03;3.50;;;;;;;;;;5073835;28;20206;-73
2022/04/05 11:35:54;;;;;;;4.07;3.67;;;;;;;;;;5071226;28;20256;-73
2022/04/05 11:38:29;;;;;;;4.47;3.80;;;;;;;;;;5074321;28;20227;-73
2022/04/05 11:41:00;;;;;;;4.47;3.90;;;;;;;;;;5074006;28;20226;-72
2022/04/05 11:43:30;;;;;;;4.90;3.80;;;;;;;;;;5066550;28;20249;-73
2022/04/05 11:46:00;;;;;;;4.23;3.77;;;;;;;;;;5072583;28;20202;-74
2022/04/05 11:48:28;;;;;;;4.73;4.13;;;;;;;;;;5074279;28;20637;-73
2022/04/05 11:51:00;;;;;;;4.43;4.03;;;;;;;;;;5073714;28;20195;-73
2022/04/05 11:53:29;;;;;;;4.93;4.53;;;;;;;;;;5073790;28;20205;-73
2022/04/05 11:56:05;;;;;;;5.40;4.73;;;;;;;;;;5073016;28;20202;-73
2022/04/05 11:58:35;;;;;;;5.37;4.83;;;;;;;;;;5074019;28;20193;-74
2022/04/05 12:01:04;;;;;;;6.70;4.93;;;;;;;;;;5073447;28;20222;-75
2022/04/05 12:03:41;;;;;;;7.90;4.90;;;;;;;;;;5073669;28;20206;-74
2022/04/05 12:06:11;;;;;;;5.03;4.63;;;;;;;;;;5072887;28;20303;-74
2022/04/05 12:08:39;;;;;;;5.50;4.53;;;;;;;;;;5072835;28;20244;-74
2022/04/05 12:11:08;;;;;;;6.03;4.77;;;;;;;;;;5069958;28;20191;-74
2022/04/05 12:13:37;;;;;;;5.37;4.73;;;;;;;;;;5069077;28;20609;-74
2022/04/05 12:16:07;;;;;;;5.07;4.57;;;;;;;;;;5072870;28;20209;-74
2022/04/05 12:18:36;;;;;;;5.27;4.77;;;;;;;;;;5071850;28;20252;-74
2022/04/05 12:21:05;;;;;;;5.17;4.77;;;;;;;;;;5072140;28;20218;-76
2022/04/05 12:23:36;;;;;;;4.73;4.33;;;;;;;;;;5071964;28;20210;-75
2022/04/05 12:26:12;;;;;;;5.60;5.10;;;;;;;;;;5070771;28;20207;-75
2022/04/05 12:28:41;;;;;;;5.27;4.77;;;;;;;;;;5067059;28;20202;-73
2022/04/05 12:31:10;;;;;;;4.57;4.10;;;;;;;;;;5068682;28;20661;-73
2022/04/05 12:33:41;;;;;;;4.67;4.27;;;;;;;;;;5071561;28;20213;-74
2022/04/05 12:36:10;;;;;;;4.83;4.43;;;;;;;;;;5071662;28;20202;-73
2022/04/05 12:38:40;;;;;;;5.40;4.13;;;;;;;;;;5070387;28;20230;-73
2022/04/05 12:41:13;;;;;;;4.00;3.70;;;;;;;;;;5066719;28;20677;-73
2022/04/05 12:43:42;;;;;;;3.47;3.17;;;;;;;;;;5070388;28;20202;-73
2022/04/05 12:46:12;;;;;;;3.77;3.47;;;;;;;;;;5070453;28;20556;-72
2022/04/05 12:48:42;;;;;;;4.23;3.83;;;;;;;;;;5066229;28;20241;-74
2022/04/05 12:51:10;;;;;;;4.13;3.40;;;;;;;;;;5071018;28;20206;-73
2022/04/05 12:53:40;;;;;;;3.70;3.40;;;;;;;;;;5071547;28;20248;-72
2022/04/05 12:56:09;;;;;;;3.83;3.43;;;;;;;;;;5072542;28;20544;-73
2022/04/05 12:58:39;;;;;;;4.13;3.73;;;;;;;;;;5072054;28;20198;-73
2022/04/05 13:01:21;;;;;;;4.93;3.87;;;;;;;;;;5072427;28;20218;-73
2022/04/05 13:03:49;;;;;;;3.93;3.63;;;;;;;;;;5073637;28;20284;-73
2022/04/05 13:06:28;;;;;;;3.70;3.40;;;;;;;;;;5073122;28;20210;-73
2022/04/05 13:09:14;;;;;;;4.43;4.03;;;;;;;;;;5071317;28;20229;-73
2022/04/05 13:11:42;;;;;;;4.47;4.07;;;;;;;;;;5072219;28;20233;-73
2022/04/05 13:14:14;;;;;;;5.17;4.27;;;;;;;;;;5072183;28;20194;-73
2022/04/05 13:16:44;;;;;;;4.67;4.27;;;;;;;;;;5067746;28;20682;-73
2022/04/05 13:19:14;;;;;;;4.60;4.20;;;;;;;;;;5070052;28;20195;-72
2022/04/05 13:21:43;;;;;;;7.30;4.57;;;;;;;;;;5069441;28;20218;-73
2022/04/05 13:24:13;;;;;;;5.27;4.80;;;;;;;;;;5064255;28;20202;-72
2022/04/05 13:26:43;;;;;;;4.83;4.43;;;;;;;;;;4713960;28;9999988;-73
2022/04/05 13:29:12;;;;;;;5.30;4.80;;;;;;;;;;5072799;28;20210;-73
2022/04/05 13:31:42;;;;;;;5.53;4.60;;;;;;;;;;5075468;28;20206;-73
2022/04/05 13:34:11;;;;;;;5.03;4.30;;;;;;;;;;5074682;28;20214;-73
2022/04/05 13:36:39;;;;;;;5.57;5.07;;;;;;;;;;5070297;28;20222;-73
2022/04/05 13:39:08;;;;;;;5.90;5.10;;;;;;;;;;5078502;28;20210;-72
2022/04/05 13:41:38;;;;;;;6.23;4.87;;;;;;;;;;5075265;28;20287;-74
2022/04/05 13:44:07;;;;;;;5.63;5.10;;;;;;;;;;5071577;28;20202;-72
2022/04/05 13:46:37;;;;;;;6.97;6.20;;;;;;;;;;5069638;28;20319;-72
2022/04/05 13:49:06;;;;;;;6.40;5.67;;;;;;;;;;5072167;28;20221;-73
2022/04/05 13:51:35;;;;;;;5.50;5.00;;;;;;;;;;5076294;28;20638;-72
2022/04/05 13:54:11;;;;;;;5.60;5.10;;;;;;;;;;5070922;28;20247;-72
2022/04/05 13:56:41;;;;;;;6.40;5.20;;;;;;;;;;5075763;28;20708;-73
2022/04/05 13:59:11;;;;;;;6.40;5.63;;;;;;;;;;5074437;28;20308;-72
2022/04/05 14:01:40;;;;;;;8.30;7.50;;;;;;;;;;5073020;28;20215;-73
2022/04/05 14:04:09;;;;;;;7.30;6.70;;;;;;;;;;5070744;28;20860;-72
2022/04/05 14:06:38;;;;;;;7.20;6.50;;;;;;;;;;5068523;28;20250;-72
2022/04/05 14:09:07;;;;;;;7.63;6.90;;;;;;;;;;5072603;28;20308;-72
2022/04/05 14:11:36;;;;;;;8.50;7.67;;;;;;;;;;5079398;28;20202;-72
2022/04/05 14:14:08;;;;;;;8.20;7.33;;;;;;;;;;5082997;28;20209;-72
2022/04/05 14:16:36;;;;;;;8.87;8.07;;;;;;;;;;5074078;28;20227;-73
2022/04/05 14:19:05;;;;;;;8.23;7.53;;;;;;;;;;5071420;28;20285;-72
2022/04/05 14:21:34;;;;;;;11.43;9.63;;;;;;;;;;5073345;28;20219;-73
2022/04/05 14:24:03;;;;;;;6.97;6.37;;;;;;;;;;5075779;28;20206;-73
2022/04/05 14:26:32;;;;;;;8.27;7.47;;;;;;;;;;5072862;28;20827;-76
2022/04/05 14:29:01;;;;;;;8.43;6.93;;;;;;;;;;5071618;28;20261;-75
2022/04/05 14:31:31;;;;;;;8.90;8.00;;;;;;;;;;5069864;28;20206;-75
2022/04/05 14:33:59;;;;;;;8.67;7.87;;;;;;;;;;5072359;28;20203;-77
2022/04/05 14:36:28;;;;;;;11.07;10.03;;;;;;;;;;5070051;28;20228;-77
2022/04/05 14:39:02;;;;;;;7.10;6.40;;;;;;;;;;5070002;28;20244;-77
2022/04/05 14:41:31;;;;;;;8.20;7.40;;;;;;;;;;5064523;28;20269;-76
2022/04/05 14:44:00;;;;;;;7.70;6.90;;;;;;;;;;5080607;28;20601;-76
2022/04/05 14:46:29;;;;;;;8.13;7.37;;;;;;;;;;5075572;28;20311;-74
2022/04/05 14:49:00;;;;;;;7.83;7.03;;;;;;;;;;5073523;28;20204;-75
2022/04/05 14:51:29;;;;;;;11.90;10.70;;;;;;;;;;5077788;28;20719;-75
2022/04/05 14:53:59;;;;;;;10.57;9.57;;;;;;;;;;5083671;28;20209;-75
2022/04/05 14:56:28;;;;;;;11.80;10.67;;;;;;;;;;5071923;28;20798;-75
2022/04/05 14:59:17;;;;;;;7.57;6.73;;;;;;;;;;5072430;28;20229;-75